createdAt,value
2016-11-07T00:00:46.050Z,99.99
2016-11-07T00:02:46.087Z,99.99
2016-11-07T00:03:46.207Z,99.99
2016-11-07T00:04:46.125Z,99.99
2016-11-07T00:06:01.066Z,99.99
2016-11-07T00:06:46.164Z,99.99
2016-11-07T00:07:46.182Z,99.99
2016-11-07T00:08:46.205Z,99.99
2016-11-07T00:09:46.223Z,99.99
2016-11-07T00:10:46.242Z,99.99
2016-11-07T00:11:46.258Z,99.99
2016-11-07T00:12:46.279Z,99.99
2016-11-07T00:13:46.296Z,99.99
2016-11-07T00:14:46.314Z,99.99
2016-11-07T00:15:46.336Z,99.99
2016-11-07T00:16:46.355Z,99.99
2016-11-07T00:17:46.373Z,99.99
2016-11-07T00:18:46.387Z,99.99
2016-11-07T00:19:46.409Z,99.99
2016-11-07T00:21:01.350Z,99.99
2016-11-07T00:21:46.451Z,99.99
2016-11-07T00:22:46.467Z,99.99
2016-11-07T00:23:46.487Z,99.99
2016-11-07T00:24:46.504Z,99.99
2016-11-07T00:25:46.524Z,99.99
2016-11-07T00:26:46.543Z,99.99
2016-11-07T00:27:46.566Z,99.99
2016-11-07T00:28:46.576Z,99.99
2016-11-07T00:29:46.594Z,99.99
2016-11-07T00:30:46.614Z,99.99
2016-11-07T00:31:46.640Z,99.99
2016-11-07T00:32:46.653Z,99.99
2016-11-07T00:33:46.679Z,99.99
2016-11-07T00:35:46.716Z,99.99
2016-11-07T00:36:46.730Z,99.99
2016-11-07T00:37:46.749Z,99.99
2016-11-07T00:38:46.765Z,99.99
2016-11-07T00:39:46.789Z,99.99
2016-11-07T00:40:46.806Z,99.99
2016-11-07T00:41:46.825Z,99.99
2016-11-07T00:42:46.844Z,99.99
2016-11-07T00:43:46.861Z,99.99
2016-11-07T00:44:46.881Z,99.99
2016-11-07T00:45:46.899Z,99.99
2016-11-07T00:46:46.953Z,99.99
2016-11-07T00:47:46.939Z,99.99
2016-11-07T00:48:46.953Z,99.99
2016-11-07T00:49:46.972Z,99.99
2016-11-07T00:50:46.993Z,99.99
2016-11-07T00:51:47.011Z,99.99
2016-11-07T00:53:01.954Z,99.99
2016-11-07T00:53:47.052Z,99.99
2016-11-07T00:54:47.071Z,99.99
2016-11-07T00:55:47.094Z,99.99
2016-11-07T00:56:47.107Z,99.99
2016-11-07T00:57:47.129Z,99.99
2016-11-07T00:58:47.447Z,99.99
2016-11-07T00:59:47.164Z,99.99
2016-11-07T01:00:47.180Z,99.99
2016-11-07T01:01:47.211Z,99.99
2016-11-07T01:02:47.218Z,99.99
2016-11-07T01:03:47.236Z,99.99
2016-11-07T01:04:47.252Z,99.99
2016-11-07T01:05:47.273Z,99.99
2016-11-07T01:06:47.293Z,99.99
2016-11-07T01:07:47.344Z,99.99
2016-11-07T01:09:02.254Z,99.99
2016-11-07T01:09:47.346Z,99.99
2016-11-07T01:10:47.364Z,99.99
2016-11-07T01:11:47.388Z,99.99
2016-11-07T01:12:47.408Z,99.99
2016-11-07T01:13:47.422Z,99.99
2016-11-07T01:14:47.439Z,99.99
2016-11-07T01:15:47.464Z,99.99
2016-11-07T01:16:47.483Z,99.99
2016-11-07T01:17:47.495Z,99.99
2016-11-07T01:18:47.514Z,99.99
2016-11-07T01:19:47.537Z,99.99
2016-11-07T01:21:47.577Z,99.99
2016-11-07T01:22:47.589Z,99.99
2016-11-07T01:25:02.549Z,99.99
2016-11-07T01:26:47.666Z,99.99
2016-11-07T01:27:47.684Z,99.99
2016-11-07T01:28:47.705Z,99.99
2016-11-07T01:29:47.718Z,99.99
2016-11-07T01:30:47.739Z,99.99
2016-11-07T01:31:47.760Z,99.99
2016-11-07T01:32:47.781Z,99.99
2016-11-07T01:33:47.798Z,99.99
2016-11-07T01:34:47.816Z,99.99
2016-11-07T01:35:47.835Z,99.99
2016-11-07T01:36:47.855Z,99.99
2016-11-07T01:38:47.890Z,99.99
2016-11-07T01:39:47.969Z,99.99
2016-11-07T01:41:02.848Z,99.99
2016-11-07T01:41:47.949Z,99.99
2016-11-07T01:42:47.963Z,99.99
2016-11-07T01:43:47.979Z,99.99
2016-11-07T01:44:48.001Z,99.99
2016-11-07T01:45:48.022Z,99.99
2016-11-07T01:46:48.038Z,99.99
2016-11-07T01:47:48.085Z,99.99
2016-11-07T01:48:48.079Z,99.99
2016-11-07T01:49:48.094Z,99.99
2016-11-07T01:50:48.112Z,99.99
2016-11-07T01:51:48.135Z,99.99
2016-11-07T01:53:48.175Z,99.99
2016-11-07T01:54:48.190Z,99.99
2016-11-07T01:56:03.130Z,99.99
2016-11-07T01:56:48.225Z,99.99
2016-11-07T01:57:48.247Z,99.99
2016-11-07T01:58:48.264Z,99.99
2016-11-07T01:59:48.280Z,99.99
2016-11-07T02:00:48.303Z,99.99
2016-11-07T02:01:48.318Z,99.99
2016-11-07T02:02:48.339Z,99.99
2016-11-07T02:03:48.354Z,99.99
2016-11-07T02:04:48.374Z,99.99
2016-11-07T02:05:48.392Z,99.99
2016-11-07T02:06:48.413Z,99.99
2016-11-07T02:07:48.435Z,99.99
2016-11-07T02:09:48.472Z,99.99
2016-11-07T02:10:48.490Z,99.99
2016-11-07T02:11:48.508Z,99.99
2016-11-07T02:12:48.521Z,99.99
2016-11-07T02:13:48.541Z,99.99
2016-11-07T02:14:48.562Z,99.99
2016-11-07T02:15:48.579Z,99.99
2016-11-07T02:16:48.600Z,99.99
2016-11-07T02:17:48.614Z,99.99
2016-11-07T02:18:48.665Z,99.99
2016-11-07T02:19:48.658Z,99.99
2016-11-07T02:20:48.672Z,99.99
2016-11-07T02:21:48.695Z,99.99
2016-11-07T02:22:48.708Z,99.99
2016-11-07T02:23:48.731Z,99.99
2016-11-07T02:24:48.743Z,99.99
2016-11-07T02:25:48.771Z,99.99
2016-11-07T02:26:48.788Z,99.99
2016-11-07T02:28:03.723Z,99.99
2016-11-07T02:28:48.820Z,99.99
2016-11-07T02:29:48.839Z,99.99
2016-11-07T02:30:48.856Z,99.99
2016-11-07T02:31:48.879Z,99.99
2016-11-07T02:32:48.902Z,99.99
2016-11-07T02:33:48.915Z,99.99
2016-11-07T02:34:48.935Z,99.99
2016-11-07T02:35:48.950Z,99.99
2016-11-07T02:36:48.974Z,99.99
2016-11-07T02:37:48.991Z,99.99
2016-11-07T02:38:49.008Z,99.99
2016-11-07T02:39:49.027Z,99.99
2016-11-07T02:40:49.043Z,99.99
2016-11-07T02:41:49.072Z,99.99
2016-11-07T02:42:49.078Z,99.99
2016-11-07T02:44:04.021Z,99.99
2016-11-07T02:44:49.116Z,99.99
2016-11-07T02:45:49.137Z,99.99
2016-11-07T02:46:49.160Z,99.99
2016-11-07T02:47:49.172Z,99.99
2016-11-07T02:48:49.194Z,99.99
2016-11-07T02:49:49.252Z,99.99
2016-11-07T02:50:49.232Z,99.99
2016-11-07T02:51:49.249Z,99.99
2016-11-07T02:52:49.264Z,99.99
2016-11-07T02:53:49.288Z,99.99
2016-11-07T02:54:49.305Z,99.99
2016-11-07T02:55:49.323Z,99.99
2016-11-07T02:56:49.340Z,99.99
2016-11-07T02:57:49.359Z,99.99
2016-11-07T02:58:49.382Z,99.99
2016-11-07T03:00:04.320Z,99.99
2016-11-07T03:00:49.415Z,99.99
2016-11-07T03:01:49.436Z,99.99
2016-11-07T03:02:49.453Z,99.99
2016-11-07T03:03:49.474Z,99.99
2016-11-07T03:04:49.494Z,99.99
2016-11-07T03:05:49.512Z,99.99
2016-11-07T03:06:49.537Z,99.99
2016-11-07T03:07:49.548Z,99.99
2016-11-07T03:08:49.564Z,99.99
2016-11-07T03:09:49.584Z,99.99
2016-11-07T03:10:49.603Z,99.99
2016-11-07T03:11:49.619Z,99.99
2016-11-07T03:12:49.640Z,99.99
2016-11-07T03:13:49.658Z,99.99
2016-11-07T03:14:49.672Z,99.99
2016-11-07T03:16:04.616Z,99.99
2016-11-07T03:16:49.717Z,99.99
2016-11-07T03:17:49.732Z,99.99
2016-11-07T03:18:49.752Z,99.99
2016-11-07T03:19:49.767Z,99.99
2016-11-07T03:20:49.791Z,99.99
2016-11-07T03:21:49.807Z,99.99
2016-11-07T03:22:49.822Z,99.99
2016-11-07T03:23:49.842Z,99.99
2016-11-07T03:24:49.861Z,99.99
2016-11-07T03:25:49.882Z,99.99
2016-11-07T03:26:49.895Z,99.99
2016-11-07T03:27:49.916Z,99.99
2016-11-07T03:28:49.939Z,99.99
2016-11-07T03:29:49.960Z,99.99
2016-11-07T03:31:04.897Z,99.99
2016-11-07T03:31:49.994Z,99.99
2016-11-07T03:32:50.012Z,99.99
2016-11-07T03:33:50.067Z,99.99
2016-11-07T03:34:50.050Z,99.99
2016-11-07T03:35:50.067Z,99.99
2016-11-07T03:36:50.088Z,99.99
2016-11-07T03:37:50.103Z,99.99
2016-11-07T03:38:50.124Z,99.99
2016-11-07T03:39:50.141Z,99.99
2016-11-07T03:40:50.160Z,99.99
2016-11-07T03:41:50.176Z,99.99
2016-11-07T03:42:50.195Z,99.99
2016-11-07T03:43:50.214Z,99.99
2016-11-07T03:44:50.231Z,99.99
2016-11-07T03:45:50.250Z,99.99
2016-11-07T03:46:50.270Z,99.99
2016-11-07T03:47:50.297Z,99.99
2016-11-07T03:48:50.304Z,99.99
2016-11-07T03:49:50.323Z,99.99
2016-11-07T03:50:50.346Z,99.99
2016-11-07T03:51:50.363Z,99.99
2016-11-07T03:52:50.380Z,99.99
2016-11-07T03:53:50.398Z,99.99
2016-11-07T03:54:50.420Z,99.99
2016-11-07T03:55:50.438Z,99.99
2016-11-07T03:56:50.456Z,99.99
2016-11-07T03:57:50.476Z,99.99
2016-11-07T03:58:50.490Z,99.99
2016-11-07T03:59:50.508Z,99.99
2016-11-07T04:00:50.526Z,99.99
2016-11-07T04:01:50.548Z,99.99
2016-11-07T04:03:05.485Z,99.99
2016-11-07T04:03:50.584Z,99.99
2016-11-07T04:04:50.599Z,99.99
2016-11-07T04:05:50.622Z,99.99
2016-11-07T04:06:50.674Z,99.99
2016-11-07T04:07:50.669Z,99.99
2016-11-07T04:08:50.673Z,99.99
2016-11-07T04:09:50.698Z,99.99
2016-11-07T04:10:50.712Z,99.99
2016-11-07T04:11:50.727Z,99.99
2016-11-07T04:12:50.746Z,99.99
2016-11-07T04:13:50.765Z,99.99
2016-11-07T04:14:50.786Z,99.99
2016-11-07T04:15:50.802Z,99.99
2016-11-07T04:16:50.820Z,99.99
2016-11-07T04:17:50.842Z,99.99
2016-11-07T04:19:05.779Z,99.99
2016-11-07T04:19:50.878Z,99.99
2016-11-07T04:20:50.891Z,99.99
2016-11-07T04:21:50.913Z,99.99
2016-11-07T04:22:50.933Z,99.99
2016-11-07T04:23:50.950Z,99.99
2016-11-07T04:24:50.970Z,99.99
2016-11-07T04:25:50.983Z,99.99
2016-11-07T04:26:51.015Z,99.99
2016-11-07T04:27:51.023Z,99.99
2016-11-07T04:28:51.039Z,99.99
2016-11-07T04:29:51.062Z,99.99
2016-11-07T04:30:51.079Z,99.99
2016-11-07T04:31:51.094Z,99.99
2016-11-07T04:32:51.115Z,99.99
2016-11-07T04:33:51.133Z,99.99
2016-11-07T04:35:06.072Z,99.99
2016-11-07T04:35:51.172Z,99.99
2016-11-07T04:36:51.187Z,99.99
2016-11-07T04:37:51.208Z,99.99
2016-11-07T04:38:51.226Z,99.99
2016-11-07T04:39:51.241Z,99.99
2016-11-07T04:40:51.261Z,99.99
2016-11-07T04:41:51.280Z,99.99
2016-11-07T04:42:51.301Z,99.99
2016-11-07T04:43:51.318Z,99.99
2016-11-07T04:44:51.339Z,99.99
2016-11-07T04:45:51.350Z,99.99
2016-11-07T04:46:51.370Z,99.99
2016-11-07T04:47:51.386Z,99.99
2016-11-07T04:48:51.408Z,99.99
2016-11-07T04:49:51.426Z,99.99
2016-11-07T04:51:06.365Z,99.99
2016-11-07T04:51:51.463Z,99.99
2016-11-07T04:52:51.478Z,99.99
2016-11-07T04:53:51.500Z,99.99
2016-11-07T04:54:51.520Z,99.99
2016-11-07T04:55:51.536Z,99.99
2016-11-07T04:56:51.552Z,99.99
2016-11-07T04:57:51.570Z,99.99
2016-11-07T04:58:51.591Z,99.99
2016-11-07T04:59:51.609Z,99.99
2016-11-07T05:00:51.624Z,99.99
2016-11-07T05:01:51.647Z,99.99
2016-11-07T05:03:51.681Z,99.99
2016-11-07T05:04:51.704Z,99.99
2016-11-07T05:06:06.642Z,99.99
2016-11-07T05:06:51.739Z,99.99
2016-11-07T05:07:51.791Z,99.99
2016-11-07T05:08:51.809Z,99.99
2016-11-07T05:09:51.797Z,99.99
2016-11-07T05:10:51.821Z,99.99
2016-11-07T05:11:51.865Z,99.99
2016-11-07T05:12:51.851Z,99.99
2016-11-07T05:13:51.869Z,99.99
2016-11-07T05:14:51.893Z,99.99
2016-11-07T05:15:51.905Z,99.99
2016-11-07T05:16:51.926Z,99.99
2016-11-07T05:17:51.941Z,99.99
2016-11-07T05:18:51.960Z,99.99
2016-11-07T05:19:51.981Z,99.99
2016-11-07T05:20:51.998Z,99.99
2016-11-07T05:21:52.017Z,99.99
2016-11-07T05:22:52.035Z,99.99
2016-11-07T05:23:52.051Z,99.99
2016-11-07T05:24:52.070Z,99.99
2016-11-07T05:25:52.088Z,99.99
2016-11-07T05:26:52.107Z,99.99
2016-11-07T05:27:52.174Z,99.99
2016-11-07T05:28:52.145Z,99.99
2016-11-07T05:29:52.161Z,99.99
2016-11-07T05:30:52.187Z,99.99
2016-11-07T05:31:52.201Z,99.99
2016-11-07T05:33:52.239Z,99.99
2016-11-07T05:34:52.283Z,99.99
2016-11-07T05:35:52.275Z,99.99
2016-11-07T05:36:52.288Z,99.99
2016-11-07T05:38:07.232Z,99.99
2016-11-07T05:38:52.329Z,99.99
2016-11-07T05:39:52.348Z,99.99
2016-11-07T05:40:52.364Z,99.99
2016-11-07T05:41:52.384Z,99.99
2016-11-07T05:42:52.399Z,99.99
2016-11-07T05:43:52.425Z,99.99
2016-11-07T05:44:52.441Z,99.99
2016-11-07T05:45:52.457Z,99.99
2016-11-07T05:46:52.473Z,99.99
2016-11-07T05:47:52.499Z,99.99
2016-11-07T05:48:52.510Z,99.99
2016-11-07T05:49:52.532Z,99.99
2016-11-07T05:50:52.548Z,99.99
2016-11-07T05:51:52.567Z,99.99
2016-11-07T05:54:07.526Z,99.99
2016-11-07T05:54:52.625Z,99.99
2016-11-07T05:55:52.641Z,99.99
2016-11-07T05:56:52.664Z,99.99
2016-11-07T05:57:52.683Z,99.99
2016-11-07T05:58:52.696Z,99.99
2016-11-07T05:59:52.715Z,99.99
2016-11-07T06:00:52.735Z,99.99
2016-11-07T06:01:52.753Z,99.99
2016-11-07T06:02:52.773Z,99.99
2016-11-07T06:03:52.786Z,99.99
2016-11-07T06:04:52.807Z,99.99
2016-11-07T06:06:52.843Z,99.99
2016-11-07T06:07:52.860Z,99.99
2016-11-07T06:10:07.823Z,99.99
2016-11-07T06:10:52.923Z,99.99
2016-11-07T06:11:52.936Z,99.99
2016-11-07T06:12:52.954Z,99.99
2016-11-07T06:13:52.977Z,99.99
2016-11-07T06:14:52.993Z,99.99
2016-11-07T06:15:53.010Z,99.99
2016-11-07T06:16:53.034Z,99.99
2016-11-07T06:17:53.047Z,99.99
2016-11-07T06:18:53.066Z,99.99
2016-11-07T06:19:53.086Z,99.99
2016-11-07T06:20:53.106Z,99.99
2016-11-07T06:21:53.126Z,99.99
2016-11-07T06:22:53.137Z,99.99
2016-11-07T06:23:53.158Z,99.99
2016-11-07T06:24:53.172Z,99.99
2016-11-07T06:26:08.114Z,99.99
2016-11-07T06:26:53.546Z,99.99
2016-11-07T06:27:53.232Z,99.99
2016-11-07T06:28:53.251Z,99.99
2016-11-07T06:29:53.270Z,99.99
2016-11-07T06:30:53.287Z,99.99
2016-11-07T06:31:53.307Z,99.99
2016-11-07T06:32:53.324Z,99.99
2016-11-07T06:33:53.343Z,99.99
2016-11-07T06:34:53.356Z,99.99
2016-11-07T06:35:53.380Z,99.99
2016-11-07T06:37:53.414Z,99.99
2016-11-07T06:38:53.438Z,99.99
2016-11-07T06:39:53.450Z,99.99
2016-11-07T06:41:08.391Z,99.99
2016-11-07T06:41:53.486Z,99.99
2016-11-07T06:42:53.508Z,99.99
2016-11-07T06:43:53.521Z,99.99
2016-11-07T06:44:53.546Z,99.99
2016-11-07T06:45:53.567Z,99.99
2016-11-07T06:46:53.582Z,99.99
2016-11-07T06:47:53.602Z,99.99
2016-11-07T06:48:53.617Z,99.99
2016-11-07T06:49:53.635Z,99.99
2016-11-07T06:50:53.651Z,99.99
2016-11-07T06:51:53.670Z,99.99
2016-11-07T06:52:53.691Z,99.99
2016-11-07T06:53:53.707Z,99.99
2016-11-07T06:54:53.732Z,99.99
2016-11-07T06:56:53.765Z,99.99
2016-11-07T06:57:53.787Z,99.99
2016-11-07T06:58:53.801Z,99.99
2016-11-07T06:59:53.822Z,99.99
2016-11-07T07:00:53.840Z,99.99
2016-11-07T07:01:53.855Z,99.99
2016-11-07T07:02:53.875Z,99.99
2016-11-07T07:03:53.897Z,99.99
2016-11-07T07:04:53.913Z,99.99
2016-11-07T07:05:53.934Z,99.99
2016-11-07T07:06:53.950Z,99.99
2016-11-07T07:07:53.971Z,99.99
2016-11-07T07:08:53.982Z,99.99
2016-11-07T07:10:54.021Z,99.99
2016-11-07T07:13:08.983Z,99.99
2016-11-07T07:13:54.080Z,99.99
2016-11-07T07:14:54.097Z,99.99
2016-11-07T07:15:54.116Z,99.99
2016-11-07T07:16:54.134Z,99.99
2016-11-07T07:17:54.152Z,99.99
2016-11-07T07:18:54.175Z,99.99
2016-11-07T07:19:54.194Z,99.99
2016-11-07T07:20:54.208Z,99.99
2016-11-07T07:21:54.227Z,99.99
2016-11-07T07:22:54.241Z,99.99
2016-11-07T07:23:54.262Z,99.99
2016-11-07T07:24:54.280Z,99.99
2016-11-07T07:25:54.301Z,99.99
2016-11-07T07:27:54.347Z,99.99
2016-11-07T07:29:09.278Z,99.99
2016-11-07T07:29:54.371Z,99.99
2016-11-07T07:30:54.393Z,99.99
2016-11-07T07:31:54.413Z,99.99
2016-11-07T07:32:54.429Z,99.99
2016-11-07T07:33:54.446Z,99.99
2016-11-07T07:34:54.472Z,99.99
2016-11-07T07:35:54.485Z,99.99
2016-11-07T07:36:54.500Z,99.99
2016-11-07T07:37:54.524Z,99.99
2016-11-07T07:38:54.563Z,99.99
2016-11-07T07:39:54.558Z,99.99
2016-11-07T07:40:54.574Z,99.99
2016-11-07T07:41:54.593Z,99.99
2016-11-07T07:42:54.613Z,99.99
2016-11-07T07:43:54.635Z,99.99
2016-11-07T07:45:09.573Z,99.99
2016-11-07T07:46:54.691Z,99.99
2016-11-07T07:47:54.718Z,99.99
2016-11-07T07:48:54.725Z,99.99
2016-11-07T07:49:54.742Z,99.99
2016-11-07T07:50:54.765Z,99.99
2016-11-07T07:51:54.782Z,99.99
2016-11-07T07:52:54.832Z,99.99
2016-11-07T07:53:54.819Z,99.99
2016-11-07T07:54:54.837Z,99.99
2016-11-07T07:55:54.853Z,99.99
2016-11-07T07:56:54.876Z,99.99
2016-11-07T07:58:54.912Z,99.99
2016-11-07T07:59:54.934Z,99.99
2016-11-07T08:01:09.868Z,99.99
2016-11-07T08:01:54.967Z,99.99
2016-11-07T08:02:54.989Z,99.99
2016-11-07T08:03:55.005Z,99.99
2016-11-07T08:04:55.019Z,99.99
2016-11-07T08:05:55.040Z,99.99
2016-11-07T08:06:55.061Z,99.99
2016-11-07T08:07:55.077Z,99.99
2016-11-07T08:08:55.095Z,99.99
2016-11-07T08:09:55.114Z,99.99
2016-11-07T08:10:55.131Z,99.99
2016-11-07T08:11:55.152Z,99.99
2016-11-07T08:12:55.170Z,99.99
2016-11-07T08:13:55.186Z,99.99
2016-11-07T08:14:55.207Z,99.99
2016-11-07T08:16:10.148Z,99.99
2016-11-07T08:16:55.247Z,99.99
2016-11-07T08:17:55.269Z,99.99
2016-11-07T08:18:55.280Z,99.99
2016-11-07T08:19:55.306Z,99.99
2016-11-07T08:20:55.324Z,99.99
2016-11-07T08:21:55.345Z,99.99
2016-11-07T08:22:55.363Z,99.99
2016-11-07T08:23:55.374Z,99.99
2016-11-07T08:24:55.395Z,99.99
2016-11-07T08:25:55.419Z,99.99
2016-11-07T08:26:55.434Z,99.99
2016-11-07T08:27:55.452Z,99.99
2016-11-07T08:28:55.475Z,99.99
2016-11-07T08:29:55.491Z,99.99
2016-11-07T08:31:55.531Z,99.99
2016-11-07T08:32:55.549Z,99.99
2016-11-07T08:33:55.566Z,99.99
2016-11-07T08:34:55.590Z,99.99
2016-11-07T08:35:55.602Z,99.99
2016-11-07T08:36:55.621Z,99.99
2016-11-07T08:37:55.644Z,99.99
2016-11-07T08:38:55.656Z,99.99
2016-11-07T08:39:55.681Z,99.99
2016-11-07T08:40:55.709Z,99.99
2016-11-07T08:41:55.716Z,99.99
2016-11-07T08:42:55.736Z,99.99
2016-11-07T08:43:55.751Z,99.99
2016-11-07T08:44:55.769Z,99.99
2016-11-07T08:45:55.793Z,99.99
2016-11-07T08:46:55.816Z,99.99
2016-11-07T08:48:10.750Z,99.99
2016-11-07T08:48:55.847Z,99.99
2016-11-07T08:49:56.126Z,99.99
2016-11-07T08:50:55.885Z,99.99
2016-11-07T08:51:55.904Z,99.99
2016-11-07T08:52:55.926Z,99.99
2016-11-07T08:53:55.945Z,99.99
2016-11-07T08:54:55.963Z,99.99
2016-11-07T08:55:55.980Z,99.99
2016-11-07T08:56:55.994Z,99.99
2016-11-07T08:57:56.017Z,99.99
2016-11-07T08:58:56.038Z,99.99
2016-11-07T08:59:56.101Z,99.99
2016-11-07T09:02:56.116Z,99.99
2016-11-07T09:04:11.052Z,99.99
2016-11-07T09:04:56.146Z,99.99
2016-11-07T09:05:56.170Z,99.99
2016-11-07T09:06:56.194Z,99.99
2016-11-07T09:07:56.205Z,99.99
2016-11-07T09:08:56.254Z,99.99
2016-11-07T09:09:56.240Z,99.99
2016-11-07T09:10:56.260Z,99.99
2016-11-07T09:11:56.279Z,99.99
2016-11-07T09:12:56.300Z,99.99
2016-11-07T09:13:56.320Z,99.99
2016-11-07T09:14:56.335Z,99.99
2016-11-07T09:16:56.380Z,99.99
2016-11-07T09:17:56.392Z,99.99
2016-11-07T09:18:56.416Z,99.99
2016-11-07T09:20:11.355Z,99.99
2016-11-07T09:20:56.450Z,99.99
2016-11-07T09:21:56.469Z,99.99
2016-11-07T09:22:56.491Z,99.99
2016-11-07T09:23:56.659Z,99.99
2016-11-07T09:24:56.527Z,99.99
2016-11-07T09:25:56.547Z,99.99
2016-11-07T09:26:56.569Z,99.99
2016-11-07T09:27:56.585Z,99.99
2016-11-07T09:28:56.606Z,99.99
2016-11-07T09:29:56.634Z,99.99
2016-11-07T09:31:56.671Z,99.99
2016-11-07T09:32:56.680Z,99.99
2016-11-07T09:33:56.705Z,99.99
2016-11-07T09:34:56.728Z,99.99
2016-11-07T09:36:11.661Z,99.99
2016-11-07T09:36:56.759Z,99.99
2016-11-07T09:37:56.779Z,99.99
2016-11-07T09:38:56.799Z,99.99
2016-11-07T09:39:56.820Z,99.99
2016-11-07T09:40:56.838Z,99.99
2016-11-07T09:41:57.162Z,99.99
2016-11-07T09:42:56.871Z,99.99
2016-11-07T09:43:56.894Z,99.99
2016-11-07T09:44:56.913Z,99.99
2016-11-07T09:45:56.932Z,99.99
2016-11-07T09:46:56.948Z,99.99
2016-11-07T09:48:56.993Z,99.99
2016-11-07T09:49:57.021Z,99.99
2016-11-07T09:51:11.952Z,99.99
2016-11-07T09:51:57.045Z,99.99
2016-11-07T09:52:57.068Z,99.99
2016-11-07T09:53:57.086Z,99.99
2016-11-07T09:54:57.105Z,99.99
2016-11-07T09:55:57.127Z,99.99
2016-11-07T09:56:57.139Z,99.99
2016-11-07T09:57:57.158Z,99.99
2016-11-07T09:58:57.186Z,99.99
2016-11-07T09:59:57.201Z,99.99
2016-11-07T10:00:57.221Z,99.99
2016-11-07T10:02:57.258Z,99.99
2016-11-07T10:03:57.585Z,99.99
2016-11-07T10:04:57.292Z,99.99
2016-11-07T10:05:57.319Z,99.99
2016-11-07T10:07:57.353Z,99.26
2016-11-07T10:08:57.373Z,99.35
2016-11-07T10:09:57.391Z,99.07
2016-11-07T10:10:57.413Z,98.5
2016-11-07T10:11:57.433Z,98.92
2016-11-07T10:12:57.454Z,99.21
2016-11-07T10:13:57.472Z,98.79
2016-11-07T10:14:57.488Z,98.59
2016-11-07T10:15:57.506Z,98.4
2016-11-07T10:16:57.528Z,98.4
2016-11-07T10:17:57.553Z,98.69
2016-11-07T10:18:57.567Z,98.79
2016-11-07T10:19:57.587Z,98.4
2016-11-07T10:21:57.623Z,98.31
2016-11-07T10:23:12.569Z,98.12
2016-11-07T10:23:57.668Z,98.12
2016-11-07T10:24:57.682Z,97.74
2016-11-07T10:25:57.700Z,97.64
2016-11-07T10:26:57.720Z,97.17
2016-11-07T10:27:57.747Z,97.07
2016-11-07T10:28:57.766Z,97.36
2016-11-07T10:29:57.780Z,97.27
2016-11-07T10:30:57.803Z,96.88
2016-11-07T10:31:57.850Z,97.17
2016-11-07T10:32:57.841Z,97.36
2016-11-07T10:33:57.861Z,97.5
2016-11-07T10:34:57.883Z,98.26
2016-11-07T10:35:57.902Z,98.35
2016-11-07T10:36:57.916Z,98.83
2016-11-07T10:37:57.941Z,98.92
2016-11-07T10:39:12.879Z,98.73
2016-11-07T10:39:57.977Z,99.4
2016-11-07T10:40:57.995Z,99.77
2016-11-07T10:41:58.016Z,99.99
2016-11-07T10:42:58.038Z,99.99
2016-11-07T10:43:58.054Z,99.99
2016-11-07T10:44:58.076Z,99.87
2016-11-07T10:45:58.090Z,99.58
2016-11-07T10:46:58.111Z,99.77
2016-11-07T10:47:58.162Z,98.73
2016-11-07T10:48:58.151Z,99.02
2016-11-07T10:49:58.170Z,99.68
2016-11-07T10:51:58.211Z,99.11
2016-11-07T10:52:58.232Z,99.3
2016-11-07T10:55:13.189Z,98.64
2016-11-07T10:56:58.334Z,98.92
2016-11-07T10:57:58.323Z,99.4
2016-11-07T10:58:58.344Z,99.21
2016-11-07T10:59:58.360Z,99.02
2016-11-07T11:00:58.381Z,98.83
2016-11-07T11:01:58.403Z,98.45
2016-11-07T11:02:58.423Z,98.16
2016-11-07T11:03:58.440Z,98.83
2016-11-07T11:04:58.462Z,98.26
2016-11-07T11:05:58.479Z,97.78
2016-11-07T11:06:58.612Z,98.54
2016-11-07T11:07:58.513Z,98.54
2016-11-07T11:08:58.531Z,98.78
2016-11-07T11:09:58.550Z,99.02
2016-11-07T11:11:13.494Z,98.83
2016-11-07T11:11:58.593Z,98.83
2016-11-07T11:12:58.608Z,98.26
2016-11-07T11:13:58.629Z,98.54
2016-11-07T11:14:58.653Z,98.64
2016-11-07T11:15:58.669Z,97.97
2016-11-07T11:16:58.690Z,97.6
2016-11-07T11:17:58.708Z,98.26
2016-11-07T11:18:58.730Z,98.26
2016-11-07T11:19:58.748Z,98.07
2016-11-07T11:20:58.799Z,98.07
2016-11-07T11:21:58.781Z,97.88
2016-11-07T11:22:58.808Z,97.31
2016-11-07T11:23:58.822Z,96.64
2016-11-07T11:24:58.846Z,96.83
2016-11-07T11:26:13.784Z,97.22
2016-11-07T11:26:58.883Z,96.5
2016-11-07T11:27:58.901Z,96.79
2016-11-07T11:28:58.924Z,96.69
2016-11-07T11:29:58.937Z,96.98
2016-11-07T11:30:58.961Z,97.17
2016-11-07T11:31:58.979Z,97.55
2016-11-07T11:32:58.999Z,96.31
2016-11-07T11:33:59.019Z,96.5
2016-11-07T11:34:59.041Z,96.31
2016-11-07T11:35:59.059Z,95.98
2016-11-07T11:36:59.075Z,95.98
2016-11-07T11:37:59.797Z,96.26
2016-11-07T11:39:59.132Z,95.75
2016-11-07T11:40:59.151Z,95.36
2016-11-07T11:41:59.175Z,95.89
2016-11-07T11:42:59.197Z,95.65
2016-11-07T11:43:59.212Z,95.41
2016-11-07T11:44:59.232Z,94.93
2016-11-07T11:45:59.256Z,94.65
2016-11-07T11:46:59.273Z,95.03
2016-11-07T11:47:59.290Z,95.12
2016-11-07T11:48:59.315Z,95.12
2016-11-07T11:49:59.330Z,95.31
2016-11-07T11:50:59.347Z,95.03
2016-11-07T11:51:59.368Z,95.22
2016-11-07T11:52:59.390Z,94.93
2016-11-07T11:53:59.406Z,95.12
2016-11-07T11:54:59.426Z,94.93
2016-11-07T11:55:59.445Z,95.6
2016-11-07T11:56:59.467Z,95.65
2016-11-07T11:58:14.406Z,95.36
2016-11-07T11:59:59.526Z,94.32
2016-11-07T12:00:59.576Z,94.32
2016-11-07T12:01:59.563Z,94.51
2016-11-07T12:02:59.583Z,94.6
2016-11-07T12:03:59.599Z,94.42
2016-11-07T12:04:59.620Z,94.46
2016-11-07T12:05:59.643Z,94.74
2016-11-07T12:06:59.664Z,94.27
2016-11-07T12:07:59.679Z,93.51
2016-11-07T12:08:59.699Z,93.32
2016-11-07T12:09:59.725Z,93.56
2016-11-07T12:10:59.740Z,93.99
2016-11-07T12:11:59.754Z,94.08
2016-11-07T12:14:14.720Z,93.99
2016-11-07T12:14:59.816Z,94.93
2016-11-07T12:15:59.837Z,94.65
2016-11-07T12:16:59.860Z,94.46
2016-11-07T12:17:59.874Z,94.32
2016-11-07T12:19:00.191Z,94.13
2016-11-07T12:19:59.915Z,94.51
2016-11-07T12:20:59.934Z,94.13
2016-11-07T12:21:59.953Z,94.03
2016-11-07T12:22:59.972Z,93.65
2016-11-07T12:23:59.992Z,93.75
2016-11-07T12:25:00.008Z,93.27
2016-11-07T12:26:00.026Z,93.18
2016-11-07T12:27:00.049Z,93.08
2016-11-07T12:28:00.065Z,93.65
2016-11-07T12:29:00.086Z,92.51
2016-11-07T12:30:15.027Z,92.85
2016-11-07T12:31:00.124Z,93.75
2016-11-07T12:32:00.152Z,93.27
2016-11-07T12:33:00.169Z,92.32
2016-11-07T12:34:00.183Z,92.71
2016-11-07T12:35:00.208Z,92.99
2016-11-07T12:36:00.323Z,93.08
2016-11-07T12:37:00.248Z,92.23
2016-11-07T12:38:00.261Z,92.32
2016-11-07T12:39:00.282Z,92.42
2016-11-07T12:41:00.323Z,91.75
2016-11-07T12:42:00.337Z,92.75
2016-11-07T12:43:00.364Z,93.18
2016-11-07T12:44:00.377Z,92.23
2016-11-07T12:45:00.403Z,92.71
2016-11-07T12:46:15.339Z,92.32
2016-11-07T12:47:00.440Z,92.32
2016-11-07T12:48:00.456Z,91.75
2016-11-07T12:49:00.478Z,92.32
2016-11-07T12:50:00.495Z,92.47
2016-11-07T12:51:00.518Z,92.23
2016-11-07T12:52:00.541Z,92.71
2016-11-07T12:53:00.555Z,92.8
2016-11-07T12:54:00.576Z,92.71
2016-11-07T12:55:00.593Z,92.9
2016-11-07T12:56:00.652Z,93.18
2016-11-07T12:57:00.629Z,92.13
2016-11-07T12:59:00.668Z,92.61
2016-11-07T13:00:00.721Z,92.23
2016-11-07T13:01:15.634Z,92.23
2016-11-07T13:02:00.735Z,92.32
2016-11-07T13:03:00.752Z,92.04
2016-11-07T13:04:00.771Z,92.42
2016-11-07T13:05:00.787Z,92.32
2016-11-07T13:06:00.840Z,91.61
2016-11-07T13:07:00.827Z,91.8
2016-11-07T13:08:00.849Z,92.18
2016-11-07T13:09:00.867Z,92.28
2016-11-07T13:10:00.882Z,92.09
2016-11-07T13:11:00.901Z,92.18
2016-11-07T13:12:00.925Z,92.28
2016-11-07T13:13:00.945Z,92.66
2016-11-07T13:14:00.961Z,92.66
2016-11-07T13:15:00.985Z,92.47
2016-11-07T13:16:01.005Z,92.09
2016-11-07T13:17:01.030Z,92.47
2016-11-07T13:18:01.040Z,92.09
2016-11-07T13:19:01.059Z,91.52
2016-11-07T13:20:01.083Z,91.71
2016-11-07T13:21:01.094Z,91.56
2016-11-07T13:22:01.119Z,91.85
2016-11-07T13:23:01.135Z,91.75
2016-11-07T13:24:01.157Z,91.47
2016-11-07T13:25:01.177Z,91.47
2016-11-07T13:26:01.204Z,91.71
2016-11-07T13:27:01.213Z,92.09
2016-11-07T13:28:01.233Z,92.66
2016-11-07T13:29:01.254Z,92.56
2016-11-07T13:30:01.272Z,92.61
2016-11-07T13:31:01.295Z,92.66